Time;durP1;ratioP1;P1;durP2;ratioP2;P2;SDS_P1;SDS_P2;PMS_P1;PMS_P2;Temp;Humidity;BMP_temperature;BMP_pressure;BME280_temperature;BME280_humidity;BME280_pressure;Samples;Min_cycle;Max_cycle;Signal;HPM_P1;HPM_P2
2021/09/30 00:00:18;;;;;;;18.65;13.83;;;;;;;4.14;88.14;102227.55;1785885;78;20983;-72
2021/09/30 00:02:46;;;;;;;18.30;13.53;;;;;;;4.14;88.17;102227.55;1809466;77;21070;-72
2021/09/30 00:05:13;;;;;;;20.32;13.70;;;;;;;4.13;88.26;102225.91;1783699;78;21520;-72
2021/09/30 00:07:40;;;;;;;20.23;13.53;;;;;;;4.14;88.27;102234.66;1803968;78;21108;-72
2021/09/30 00:10:09;;;;;;;18.30;13.32;;;;;;;4.13;88.30;102235.17;1789099;78;21573;-72
2021/09/30 00:12:42;;;;;;;19.00;13.40;;;;;;;4.14;88.37;102234.66;1823366;78;20994;-73
2021/09/30 00:15:11;;;;;;;17.85;13.20;;;;;;;4.14;88.42;102238.12;1782778;79;21590;-73
2021/09/30 00:18:05;;;;;;;18.95;13.85;;;;;;;4.14;88.48;102232.84;1784483;78;21547;-71
2021/09/30 00:34:14;;;;;;;17.77;12.88;;;;;;;4.40;89.21;102227.24;1780918;79;21227;-72
2021/09/30 00:41:58;;;;;;;19.10;14.18;;;;;;;4.59;89.62;102222.00;1778757;78;21070;-74
2021/09/30 00:49:48;;;;;;;18.87;14.60;;;;;;;4.84;90.01;102213.89;1782860;78;21031;-73
2021/09/30 00:55:31;;;;;;;19.40;14.47;;;;;;;5.02;90.14;102213.55;1820693;77;21018;-73
2021/09/30 02:19:36;;;;;;;15.75;12.15;;;;;;;6.67;87.71;102210.88;1812025;79;21726;-72
2021/09/30 02:27:43;;;;;;;16.90;13.22;;;;;;;6.74;87.46;102214.92;1814089;78;21065;-73
2021/09/30 02:30:24;;;;;;;15.85;12.50;;;;;;;6.77;87.46;102213.21;1806832;79;21540;-72
2021/09/30 02:39:08;;;;;;;15.85;12.60;;;;;;;6.85;87.11;102210.95;1780612;78;21583;-73
2021/09/30 02:59:57;;;;;;;17.92;12.50;;;;;;;6.88;86.52;102215.84;1812712;79;21128;-74
2021/09/30 03:02:26;;;;;;;;;;;;;;;6.89;86.47;102217.52;1819127;77;21022;-73
2021/09/30 03:04:52;;;;;;;16.42;12.43;;;;;;;6.93;86.49;102215.59;1820294;77;21143;-73
2021/09/30 03:07:19;;;;;;;16.25;12.88;;;;;;;6.95;86.36;102214.09;1820998;78;21011;-73
2021/09/30 03:09:49;;;;;;;16.10;12.18;;;;;;;6.96;86.26;102213.08;1790342;78;21571;-74
2021/09/30 03:12:28;;;;;;;16.30;12.70;;;;;;;6.96;86.16;102213.89;1787193;79;21034;-74
2021/09/30 03:15:17;;;;;;;14.68;11.65;;;;;;;6.97;86.13;102218.17;1766769;80;21039;-74
2021/09/30 03:17:51;;;;;;;15.90;12.68;;;;;;;6.98;86.00;102218.52;1786229;78;21240;-72
2021/09/30 03:23:12;;;;;;;17.40;12.80;;;;;;;7.00;85.75;102213.81;1772852;80;21042;-73
2021/09/30 03:25:39;;;;;;;14.70;11.85;;;;;;;7.03;85.64;102217.92;1808070;77;21012;-74
2021/09/30 03:28:06;;;;;;;16.62;12.50;;;;;;;7.02;85.48;102222.42;1795193;78;21404;-72
2021/09/30 03:30:34;;;;;;;17.17;13.38;;;;;;;7.03;85.46;102217.92;1794911;78;21660;-72
2021/09/30 03:33:05;;;;;;;15.08;12.50;;;;;;;7.02;85.46;102214.45;1788157;78;21077;-74
2021/09/30 03:35:36;;;;;;;15.55;12.30;;;;;;;7.03;85.35;102223.23;1792943;78;21117;-74
2021/09/30 03:38:04;;;;;;;16.97;12.85;;;;;;;7.01;85.39;102220.79;1791807;78;21062;-73
2021/09/30 03:40:30;;;;;;;13.68;10.85;;;;;;;7.03;85.40;102216.09;1820011;78;21061;-73
2021/09/30 03:42:58;;;;;;;15.55;12.00;;;;;;;7.03;85.31;102212.10;1823872;77;21118;-73
2021/09/30 03:45:25;;;;;;;16.62;12.35;;;;;;;7.02;85.27;102212.30;1782546;78;21045;-73
2021/09/30 03:47:56;;;;;;;14.98;12.37;;;;;;;7.00;85.22;102217.80;1822056;77;21090;-73
2021/09/30 03:50:29;;;;;;;18.82;13.98;;;;;;;6.99;85.18;102216.16;1819884;77;21076;-73
2021/09/30 04:00:52;;;;;;;16.62;12.70;;;;;;;6.97;85.00;102210.72;1793556;78;21076;-75
2021/09/30 04:03:19;;;;;;;17.82;13.20;;;;;;;6.95;84.92;102213.59;1814785;77;21117;-73
2021/09/30 04:05:48;;;;;;;15.38;12.53;;;;;;;6.92;84.90;102211.31;1804952;77;21046;-73
2021/09/30 04:08:17;;;;;;;14.25;11.68;;;;;;;6.89;84.86;102219.66;1820952;77;21006;-73
2021/09/30 04:10:45;;;;;;;16.35;12.75;;;;;;;6.87;84.89;102216.87;1808101;77;21462;-74
2021/09/30 04:13:12;;;;;;;17.92;13.43;;;;;;;6.83;84.88;102212.96;1804344;77;21077;-73
2021/09/30 04:15:39;;;;;;;14.15;11.25;;;;;;;6.81;84.91;102215.31;1820883;77;20943;-73
2021/09/30 04:18:06;;;;;;;14.87;12.60;;;;;;;6.82;84.92;102216.13;1783204;78;20999;-73
2021/09/30 04:20:33;;;;;;;15.95;12.70;;;;;;;6.78;84.96;102219.67;1819228;77;21125;-73
2021/09/30 04:23:07;;;;;;;14.58;11.75;;;;;;;6.78;85.08;102213.55;1803295;77;21077;-73
2021/09/30 04:25:38;;;;;;;16.42;13.30;;;;;;;6.78;85.09;102219.67;1813114;77;21055;-73
2021/09/30 04:28:05;;;;;;;14.75;11.85;;;;;;;6.78;85.15;102222.33;1827009;77;21081;-72
2021/09/30 04:30:33;;;;;;;16.90;12.73;;;;;;;6.76;85.23;102220.36;1822235;78;21033;-73
2021/09/30 04:33:05;;;;;;;17.55;13.05;;;;;;;6.77;85.34;102220.67;1782303;79;27813;-72
2021/09/30 04:35:32;;;;;;;15.88;12.45;;;;;;;6.80;85.44;102222.12;1782972;78;21063;-74
2021/09/30 04:37:58;;;;;;;15.78;12.73;;;;;;;6.83;85.50;102224.91;1788873;77;21559;-74
2021/09/30 04:40:25;;;;;;;17.90;13.55;;;;;;;6.86;85.57;102229.34;1784518;78;21411;-74
2021/09/30 04:42:52;;;;;;;19.10;13.20;;;;;;;6.92;85.63;102228.58;1808321;78;21536;-73
2021/09/30 04:45:20;;;;;;;16.40;12.88;;;;;;;6.98;85.64;102228.33;1808349;77;22151;-73
2021/09/30 04:47:49;;;;;;;16.93;13.13;;;;;;;7.01;85.63;102235.41;1808885;77;21013;-72
2021/09/30 04:50:16;;;;;;;16.15;12.05;;;;;;;7.09;85.69;102234.43;1814215;77;21065;-73
2021/09/30 04:52:45;;;;;;;14.75;11.80;;;;;;;7.16;85.73;102233.97;1820870;77;21046;-73
2021/09/30 04:55:12;;;;;;;18.48;14.05;;;;;;;7.20;85.67;102233.89;1783434;78;21054;-74
2021/09/30 04:57:41;;;;;;;18.45;13.08;;;;;;;7.23;85.68;102226.86;1822898;78;21606;-73
2021/09/30 05:00:09;;;;;;;16.48;13.05;;;;;;;7.32;85.62;102230.20;1788204;78;21002;-73
2021/09/30 05:02:53;;;;;;;16.02;13.08;;;;;;;7.39;85.52;102234.23;1704890;82;21154;-73
2021/09/30 05:05:19;;;;;;;16.97;13.00;;;;;;;7.46;85.49;102236.42;1778048;79;21058;-72
2021/09/30 05:07:47;;;;;;;14.90;10.88;;;;;;;7.55;85.41;102238.44;1817017;77;20971;-73
2021/09/30 05:10:18;;;;;;;14.55;11.68;;;;;;;7.63;85.25;102240.92;1816031;77;21118;-73
2021/09/30 05:12:43;;;;;;;16.67;12.07;;;;;;;7.66;84.99;102235.22;1816921;77;21003;-72
2021/09/30 05:15:11;;;;;;;14.78;12.23;;;;;;;7.70;84.84;102238.63;1785307;78;21549;-73
2021/09/30 05:17:40;;;;;;;14.80;11.73;;;;;;;7.73;84.62;102240.91;1779977;80;21577;-72
2021/09/30 05:20:11;;;;;;;13.65;11.20;;;;;;;7.77;84.50;102241.33;1777468;78;21011;-71
2021/09/30 05:22:39;;;;;;;18.05;11.55;;;;;;;7.82;84.33;102243.39;1808125;78;21458;-73
2021/09/30 05:25:06;;;;;;;17.45;11.80;;;;;;;7.86;83.71;102238.79;1811892;77;21121;-73
2021/09/30 05:27:34;;;;;;;17.87;11.70;;;;;;;7.89;83.42;102250.88;1820988;77;21878;-73
2021/09/30 05:30:00;;;;;;;15.95;12.37;;;;;;;7.92;83.39;102246.50;1822644;77;21066;-73
2021/09/30 05:32:30;;;;;;;15.78;12.00;;;;;;;8.01;83.42;102247.16;1811619;78;21565;-73
2021/09/30 05:34:58;;;;;;;13.60;10.88;;;;;;;8.15;83.31;102255.50;1805520;77;21148;-72
2021/09/30 05:37:28;;;;;;;15.85;11.57;;;;;;;8.26;83.14;102250.11;1822044;76;21003;-72
2021/09/30 05:39:56;;;;;;;16.20;11.80;;;;;;;8.33;82.98;102248.31;1813680;77;21085;-73
2021/09/30 05:42:24;;;;;;;14.60;11.45;;;;;;;8.41;82.79;102258.28;1816485;78;21505;-74
2021/09/30 05:44:53;;;;;;;15.45;11.50;;;;;;;8.50;82.48;102260.78;1784375;78;21042;-74
2021/09/30 05:47:20;;;;;;;16.73;11.35;;;;;;;8.55;82.21;102252.98;1818691;77;21108;-73
2021/09/30 05:49:47;;;;;;;13.78;10.72;;;;;;;8.62;81.80;102259.99;1810314;77;21572;-73
2021/09/30 05:52:16;;;;;;;12.80;10.82;;;;;;;8.68;81.45;102261.00;1712964;79;21517;-73
2021/09/30 05:54:46;;;;;;;13.78;10.90;;;;;;;8.73;81.08;102261.23;1821850;76;21589;-73
2021/09/30 05:57:15;;;;;;;13.83;11.25;;;;;;;8.81;80.85;102263.69;1812642;77;22180;-73
2021/09/30 05:59:42;;;;;;;12.88;10.55;;;;;;;8.93;80.81;102256.73;1779746;78;21326;-73
2021/09/30 06:10:34;;;;;;;12.68;9.28;;;;;;;9.32;79.24;102263.61;1813275;77;21083;-74
2021/09/30 06:12:59;;;;;;;12.85;10.20;;;;;;;9.39;78.96;102270.57;1810326;77;21105;-73
2021/09/30 06:15:28;;;;;;;11.88;9.60;;;;;;;9.49;78.14;102264.81;1814985;78;20946;-72
2021/09/30 06:17:56;;;;;;;11.25;9.05;;;;;;;9.55;77.49;102267.98;1812631;78;21067;-72
2021/09/30 06:20:25;;;;;;;10.13;8.28;;;;;;;9.59;76.35;102262.54;1818915;77;21094;-72
2021/09/30 06:22:55;;;;;;;11.00;8.83;;;;;;;9.65;75.79;102264.89;1815413;77;21042;-72
2021/09/30 06:25:22;;;;;;;10.20;8.33;;;;;;;9.72;75.44;102264.88;1810777;77;21327;-73
2021/09/30 06:27:50;;;;;;;11.70;9.40;;;;;;;9.83;75.31;102271.70;1809567;77;21840;-74
2021/09/30 06:30:17;;;;;;;13.03;9.60;;;;;;;9.93;74.78;102272.60;1768836;78;21305;-73
2021/09/30 06:32:44;;;;;;;10.73;8.37;;;;;;;9.98;74.37;102262.12;1794023;77;21796;-74
2021/09/30 06:35:30;;;;;;;11.47;9.23;;;;;;;10.08;74.14;102266.50;1770169;78;21363;-74
2021/09/30 06:37:57;;;;;;;8.93;7.50;;;;;;;10.21;73.76;102271.48;1790377;78;21809;-74
2021/09/30 06:40:24;;;;;;;10.83;8.30;;;;;;;10.31;73.22;102267.87;1814842;77;21334;-74
2021/09/30 06:42:51;;;;;;;10.07;8.37;;;;;;;10.36;72.27;102270.70;1816969;77;21582;-73
2021/09/30 06:45:37;;;;;;;10.87;8.23;;;;;;;10.41;72.12;102270.91;1782716;78;21389;-73
2021/09/30 06:48:09;;;;;;;9.95;7.87;;;;;;;10.48;70.94;102272.20;1746703;78;21787;-73
2021/09/30 06:50:37;;;;;;;10.57;8.30;;;;;;;10.54;70.85;102272.69;1819310;78;21080;-72
2021/09/30 06:53:07;;;;;;;10.80;8.03;;;;;;;10.65;70.45;102271.98;1785930;78;21346;-73
2021/09/30 06:55:55;;;;;;;9.60;7.70;;;;;;;10.79;70.29;102276.23;1791810;78;21381;-72
2021/09/30 06:58:47;;;;;;;9.57;7.00;;;;;;;10.96;69.78;102272.51;1795791;78;21666;-74
2021/09/30 07:01:29;;;;;;;10.10;8.00;;;;;;;11.11;68.65;102274.03;1814396;77;21729;-75
2021/09/30 07:04:14;;;;;;;8.83;7.27;;;;;;;11.16;68.34;102271.53;1819641;78;21815;-73
2021/09/30 07:06:44;;;;;;;10.73;7.43;;;;;;;11.27;67.85;102276.97;1815713;77;21216;-74
2021/09/30 07:09:12;;;;;;;9.83;7.00;;;;;;;11.36;67.40;102276.19;1814822;77;21403;-74
2021/09/30 07:11:39;;;;;;;8.83;6.87;;;;;;;11.43;66.37;102272.11;1813474;78;21316;-73
2021/09/30 07:14:08;;;;;;;9.07;7.20;;;;;;;11.47;65.94;102274.11;1776741;78;21273;-71
2021/09/30 07:16:35;;;;;;;9.70;6.93;;;;;;;11.62;65.33;102280.99;1786306;78;21312;-73
2021/09/30 07:19:06;;;;;;;8.53;6.20;;;;;;;11.76;64.51;102279.80;1782782;78;21351;-74
2021/09/30 07:21:34;;;;;;;8.57;6.50;;;;;;;11.87;63.81;102276.41;1832959;77;21280;-76
2021/09/30 07:24:01;;;;;;;8.67;6.70;;;;;;;11.95;63.18;102276.12;1823190;77;21396;-77
2021/09/30 07:26:28;;;;;;;7.90;6.00;;;;;;;12.06;62.56;102274.54;1817923;77;22526;-77
2021/09/30 07:28:55;;;;;;;7.70;5.90;;;;;;;12.15;62.19;102276.41;1812236;77;21293;-78
2021/09/30 07:31:22;;;;;;;7.53;6.10;;;;;;;12.19;61.56;102271.70;1816680;77;21863;-77
2021/09/30 07:33:49;;;;;;;6.67;5.50;;;;;;;12.24;61.05;102271.04;1814472;77;21383;-76
2021/09/30 07:36:17;;;;;;;8.90;6.17;;;;;;;12.33;58.97;102273.68;1817286;77;21340;-77
2021/09/30 07:38:45;;;;;;;8.13;6.33;;;;;;;12.33;58.97;102273.68;1815546;77;21956;-75
2021/09/30 07:41:13;;;;;;;7.80;5.77;;;;;;;12.24;58.64;102271.04;1816456;78;21461;-77
2021/09/30 07:43:43;;;;;;;8.10;6.10;;;;;;;12.19;58.87;102275.72;1818253;78;21467;-75
2021/09/30 07:46:13;;;;;;;9.07;7.10;;;;;;;12.20;59.29;102271.98;1776045;78;21457;-76
2021/09/30 07:48:46;;;;;;;10.40;7.23;;;;;;;12.24;58.62;102274.22;1808322;77;21460;-77
2021/09/30 07:51:13;;;;;;;7.83;6.43;;;;;;;12.18;58.15;102273.28;1812016;77;21526;-76
2021/09/30 07:53:42;;;;;;;7.77;6.00;;;;;;;12.32;57.59;102270.71;1817036;77;21870;-76
2021/09/30 07:56:09;;;;;;;9.37;5.90;;;;;;;12.32;57.59;102270.71;1815236;77;21602;-78
2021/09/30 07:58:37;;;;;;;6.40;5.20;;;;;;;12.52;56.76;102269.63;1817941;77;21458;-77
2021/09/30 08:01:04;;;;;;;7.13;5.23;;;;;;;12.52;56.76;102269.63;1814442;77;21909;-76
2021/09/30 08:03:32;;;;;;;6.17;4.50;;;;;;;12.58;56.57;102264.70;1816381;77;21538;-76
2021/09/30 08:05:59;;;;;;;6.97;4.77;;;;;;;12.71;55.92;102272.55;1818652;77;21719;-76
2021/09/30 08:08:27;;;;;;;6.67;4.30;;;;;;;12.70;54.99;102269.58;1814430;77;21595;-76
2021/09/30 08:11:01;;;;;;;5.50;4.40;;;;;;;12.65;55.08;102273.45;1819607;77;21751;-75
2021/09/30 08:13:42;;;;;;;5.40;4.53;;;;;;;12.60;54.71;102268.80;1814566;77;21791;-75
2021/09/30 08:16:08;;;;;;;6.30;4.97;;;;;;;12.61;55.04;102271.76;1806743;77;22124;-75
2021/09/30 08:18:37;;;;;;;6.97;5.50;;;;;;;12.70;55.01;102274.94;1795279;78;21756;-77
2021/09/30 08:21:04;;;;;;;7.57;5.47;;;;;;;12.83;54.80;102272.56;1799023;78;21802;-75
2021/09/30 08:23:31;;;;;;;6.87;5.00;;;;;;;12.83;54.80;102272.56;1809541;77;21734;-76
2021/09/30 08:25:59;;;;;;;7.60;5.37;;;;;;;12.85;54.19;102271.81;1816202;78;21708;-76
2021/09/30 08:28:26;;;;;;;7.93;5.40;;;;;;;12.55;53.95;102275.34;1819852;77;21708;-75
2021/09/30 08:30:53;;;;;;;6.67;4.30;;;;;;;12.55;53.95;102275.34;1785310;78;21536;-76
2021/09/30 08:33:22;;;;;;;5.03;4.07;;;;;;;12.51;54.32;102269.34;1786132;78;21543;-78
2021/09/30 08:35:50;;;;;;;5.57;3.97;;;;;;;12.56;54.20;102278.31;1787515;78;21670;-77
2021/09/30 08:38:17;;;;;;;5.03;3.80;;;;;;;12.64;54.04;102267.28;1817873;77;22148;-76
2021/09/30 08:40:46;;;;;;;5.63;3.87;;;;;;;12.89;52.77;102272.45;1817331;77;21671;-76
2021/09/30 08:43:14;;;;;;;4.67;3.60;;;;;;;12.89;52.77;102272.45;1815532;77;22210;-76
2021/09/30 08:45:41;;;;;;;6.67;4.33;;;;;;;13.01;52.71;102272.48;1813926;78;21738;-78
2021/09/30 08:48:08;;;;;;;6.23;4.00;;;;;;;13.04;51.76;102269.88;1759649;78;22225;-78
2021/09/30 08:50:40;;;;;;;5.80;5.10;;;;;;;13.03;52.33;102268.22;1820309;77;21635;-78
2021/09/30 08:53:11;;;;;;;6.63;4.70;;;;;;;13.03;52.16;102266.38;1823332;78;21676;-77
2021/09/30 08:55:40;;;;;;;6.80;5.47;;;;;;;13.11;52.10;102270.58;1821478;77;21680;-77
2021/09/30 08:58:07;;;;;;;6.93;5.03;;;;;;;13.20;51.78;102269.72;1805792;78;21537;-78
2021/09/30 09:00:38;;;;;;;6.20;4.83;;;;;;;13.29;51.93;102266.48;1823168;77;21753;-78
2021/09/30 09:03:04;;;;;;;7.50;5.50;;;;;;;13.39;51.38;102264.53;1775530;80;21701;-78
2021/09/30 09:05:32;;;;;;;6.60;5.17;;;;;;;13.44;51.35;102262.52;1824109;77;21669;-77
2021/09/30 09:08:01;;;;;;;6.27;5.23;;;;;;;13.43;51.09;102251.49;1787783;78;22202;-77
2021/09/30 09:10:33;;;;;;;7.00;6.00;;;;;;;13.45;51.67;102254.21;1821333;78;21728;-77
2021/09/30 09:13:08;;;;;;;8.87;5.20;;;;;;;13.42;51.57;102250.65;1787226;78;21700;-76
2021/09/30 09:15:51;;;;;;;7.30;5.23;;;;;;;13.50;51.52;102249.50;1826326;77;21552;-76
2021/09/30 09:18:34;;;;;;;6.13;4.93;;;;;;;13.58;51.20;102252.62;1773700;78;21679;-78
2021/09/30 09:21:13;;;;;;;7.37;5.50;;;;;;;13.66;50.95;102253.34;1805779;76;21633;-76
2021/09/30 09:23:51;;;;;;;8.73;5.73;;;;;;;13.78;50.96;102250.89;1815992;77;22253;-77
2021/09/30 09:26:25;;;;;;;9.03;6.07;;;;;;;13.81;50.65;102253.11;1776040;78;21666;-77
2021/09/30 09:29:16;;;;;;;7.37;5.23;;;;;;;13.90;50.56;102255.44;1821614;78;21738;-78
2021/09/30 09:31:50;;;;;;;7.40;5.67;;;;;;;13.90;50.38;102247.38;1777231;80;21800;-77
2021/09/30 09:34:26;;;;;;;6.87;5.07;;;;;;;13.91;51.18;102253.03;1821335;78;21687;-79
2021/09/30 09:36:54;;;;;;;7.17;5.77;;;;;;;14.02;51.32;102249.52;1782703;78;21837;-76
2021/09/30 09:39:35;;;;;;;8.03;5.77;;;;;;;14.07;51.07;102253.09;1805563;78;21041;-77
2021/09/30 09:42:14;;;;;;;8.10;5.83;;;;;;;14.10;49.87;102250.47;1779397;78;21018;-76
2021/09/30 09:44:57;;;;;;;8.53;5.90;;;;;;;14.10;49.87;102250.47;1804625;77;21014;-77
2021/09/30 09:47:34;;;;;;;6.80;5.47;;;;;;;14.14;49.83;102250.80;1820677;77;21640;-77
2021/09/30 09:50:24;;;;;;;7.67;5.43;;;;;;;14.17;50.35;102251.14;1814705;77;20998;-76
2021/09/30 09:53:01;;;;;;;7.50;5.90;;;;;;;14.20;50.33;102257.38;1807892;78;21041;-77
2021/09/30 09:55:35;;;;;;;7.70;5.27;;;;;;;14.24;49.22;102255.03;1786756;78;21034;-76
2021/09/30 09:58:11;;;;;;;7.23;5.80;;;;;;;14.22;48.98;102252.59;1824232;77;21414;-78
2021/09/30 10:00:41;;;;;;;7.47;5.43;;;;;;;14.12;48.99;102242.19;1821423;77;21080;-76
2021/09/30 10:03:26;;;;;;;7.17;5.63;;;;;;;14.16;48.79;102249.52;1809863;77;21085;-75
2021/09/30 10:05:55;;;;;;;7.37;5.27;;;;;;;14.19;48.61;102253.08;1779202;78;20987;-77
2021/09/30 10:08:22;;;;;;;7.17;6.27;;;;;;;14.29;47.99;102245.20;1822682;78;21041;-76
2021/09/30 10:10:50;;;;;;;7.30;5.07;;;;;;;14.33;48.00;102247.41;1778290;78;21742;-76
2021/09/30 10:13:17;;;;;;;7.70;6.00;;;;;;;14.35;47.35;102234.02;1820660;78;21083;-76
2021/09/30 10:15:46;;;;;;;8.60;6.20;;;;;;;14.35;47.35;102234.02;1821563;78;21013;-76
2021/09/30 10:18:13;;;;;;;7.47;5.87;;;;;;;14.17;47.94;102239.05;1819185;78;21509;-77
2021/09/30 10:20:42;;;;;;;6.80;5.63;;;;;;;14.02;47.94;102237.42;1814344;78;21664;-76
2021/09/30 10:23:10;;;;;;;8.00;6.37;;;;;;;13.94;47.74;102230.54;1818633;78;20994;-77
2021/09/30 10:25:45;;;;;;;8.90;7.00;;;;;;;13.92;49.23;102229.98;1813847;78;21144;-76
2021/09/30 10:28:12;;;;;;;7.90;6.27;;;;;;;13.92;49.23;102229.98;1816453;77;21043;-77
2021/09/30 10:30:44;;;;;;;7.37;6.50;;;;;;;14.30;48.54;102229.88;1821520;78;21672;-77
2021/09/30 10:33:13;;;;;;;8.70;5.83;;;;;;;14.30;48.54;102229.88;1803744;78;21656;-78
2021/09/30 10:35:51;;;;;;;8.40;6.37;;;;;;;14.54;48.85;102225.22;1821759;78;21033;-75
2021/09/30 10:38:28;;;;;;;8.37;6.10;;;;;;;14.90;48.35;102229.32;1817691;77;21843;-76
2021/09/30 10:41:09;;;;;;;6.87;5.20;;;;;;;15.23;47.74;102223.63;1814847;77;21042;-77
2021/09/30 10:43:41;;;;;;;8.23;5.33;;;;;;;15.53;46.28;102224.61;1823334;77;21054;-76
2021/09/30 10:46:36;;;;;;;7.30;5.33;;;;;;;15.69;45.53;102216.19;1784061;80;21704;-78
2021/09/30 10:49:12;;;;;;;6.50;5.27;;;;;;;15.59;44.85;102216.84;1821635;77;21022;-78
2021/09/30 10:51:38;;;;;;;6.83;5.77;;;;;;;15.50;45.47;102214.33;1804713;78;21064;-79
2021/09/30 10:54:05;;;;;;;9.20;5.50;;;;;;;15.49;46.40;102212.14;1785342;80;21053;-77
2021/09/30 10:56:38;;;;;;;6.97;5.40;;;;;;;15.59;45.35;102216.03;1808656;77;21038;-78
2021/09/30 10:59:13;;;;;;;7.07;5.73;;;;;;;15.59;45.11;102210.11;1821061;77;21485;-78
2021/09/30 11:01:53;;;;;;;6.77;5.53;;;;;;;15.62;45.41;102209.62;1822227;77;21037;-78
2021/09/30 11:04:22;;;;;;;6.37;5.70;;;;;;;15.71;44.93;102212.73;1823793;77;21111;-79
2021/09/30 11:07:18;;;;;;;6.50;5.40;;;;;;;15.68;43.74;102208.65;1824111;77;21041;-80
2021/09/30 11:10:12;;;;;;;7.13;6.00;;;;;;;15.57;44.73;102212.80;1786198;78;21042;-79
2021/09/30 11:12:40;;;;;;;6.97;5.53;;;;;;;15.51;45.08;102215.95;1794287;77;21074;-80
2021/09/30 11:15:07;;;;;;;6.63;5.60;;;;;;;15.51;44.83;102206.52;1778620;78;21194;-79
2021/09/30 11:17:40;;;;;;;7.77;5.90;;;;;;;15.50;44.59;102202.21;1821990;77;21045;-80
2021/09/30 11:20:33;;;;;;;6.23;4.73;;;;;;;15.49;44.80;102203.25;1819317;77;20978;-78
2021/09/30 11:23:00;;;;;;;6.30;5.30;;;;;;;15.49;45.15;102200.02;1821679;77;21052;-78
2021/09/30 11:26:07;;;;;;;6.30;5.37;;;;;;;15.45;45.25;102194.05;1796330;78;21079;-78
2021/09/30 11:28:35;;;;;;;6.50;4.60;;;;;;;15.45;44.80;102191.36;1784221;78;21109;-77
2021/09/30 11:31:24;;;;;;;8.87;4.90;;;;;;;15.47;45.05;102193.28;1823474;78;21134;-77
2021/09/30 11:33:54;;;;;;;7.40;5.60;;;;;;;15.50;45.06;102191.44;1819649;78;21032;-78
2021/09/30 11:36:21;;;;;;;7.43;5.27;;;;;;;15.49;44.97;102187.09;1812603;78;21521;-77
2021/09/30 11:38:50;;;;;;;7.03;5.30;;;;;;;15.45;44.76;102188.66;1753927;78;21544;-79
2021/09/30 11:41:18;;;;;;;6.67;5.20;;;;;;;15.36;44.14;102184.77;1784996;77;21073;-79
2021/09/30 11:43:47;;;;;;;6.43;4.60;;;;;;;15.19;44.09;102186.97;1816492;77;21356;-76
2021/09/30 11:46:32;;;;;;;6.70;5.13;;;;;;;14.96;44.74;102180.45;1811713;77;21054;-79
2021/09/30 11:49:05;;;;;;;6.77;5.40;;;;;;;14.81;46.05;102181.55;1812233;77;21794;-79
2021/09/30 11:51:40;;;;;;;8.30;5.50;;;;;;;14.84;46.28;102181.06;1810579;77;21014;-77
2021/09/30 11:54:11;;;;;;;6.43;5.27;;;;;;;14.94;46.61;102178.02;1774071;78;21023;-78
2021/09/30 11:56:45;;;;;;;6.45;4.87;;;;;;;15.06;45.71;102172.52;1818396;78;22004;-78
2021/09/30 11:59:11;;;;;;;8.63;6.00;;;;;;;15.15;45.48;102176.42;1809889;77;21001;-77
2021/09/30 12:01:47;;;;;;;6.83;5.60;;;;;;;15.17;45.39;102172.16;1816837;78;21018;-78
2021/09/30 12:04:16;;;;;;;6.37;4.80;;;;;;;15.09;45.19;102166.64;1776349;78;22398;-77
2021/09/30 12:06:45;;;;;;;6.53;5.50;;;;;;;15.10;45.42;102167.45;1809916;77;21070;-77
2021/09/30 12:09:15;;;;;;;6.23;5.60;;;;;;;15.07;45.84;102162.06;1774202;77;21525;-77
2021/09/30 12:11:58;;;;;;;6.40;5.60;;;;;;;15.16;45.81;102165.13;1771718;78;21534;-77
2021/09/30 12:14:49;;;;;;;6.53;5.17;;;;;;;15.27;45.55;102160.69;1787751;78;21140;-76
2021/09/30 12:17:22;;;;;;;6.60;5.60;;;;;;;15.27;45.55;102160.69;1803250;77;21600;-83
2021/09/30 12:20:03;;;;;;;6.97;5.17;;;;;;;15.32;45.24;102160.23;1812090;77;21720;-77
2021/09/30 12:22:41;;;;;;;7.37;4.97;;;;;;;15.38;45.33;102149.00;1813693;78;21680;-80
2021/09/30 12:25:20;;;;;;;7.57;4.77;;;;;;;15.34;44.31;102145.19;1784603;79;21731;-78
2021/09/30 12:27:59;;;;;;;6.90;4.73;;;;;;;15.23;45.14;102146.41;1776367;79;21660;-77
2021/09/30 12:30:29;;;;;;;6.37;5.47;;;;;;;15.33;45.86;102132.23;1814086;78;22192;-78
2021/09/30 12:33:04;;;;;;;7.10;5.13;;;;;;;15.33;45.86;102125.50;1819067;77;21078;-77
2021/09/30 12:35:38;;;;;;;5.53;4.47;;;;;;;15.40;46.04;102136.92;1807180;78;21799;-77
2021/09/30 12:38:22;;;;;;;7.43;5.53;;;;;;;15.45;44.76;102131.59;1808369;78;21671;-77
2021/09/30 12:40:57;;;;;;;6.90;5.67;;;;;;;15.36;44.40;102138.47;1806328;78;22121;-76
2021/09/30 12:43:31;;;;;;;6.57;5.03;;;;;;;15.14;44.65;102134.44;1761383;78;21782;-77
2021/09/30 12:46:07;;;;;;;5.60;4.27;;;;;;;15.10;45.11;102132.47;1810385;78;22218;-76
2021/09/30 12:48:41;;;;;;;6.70;5.40;;;;;;;15.13;44.44;102136.82;1818945;77;22937;-77
2021/09/30 12:51:22;;;;;;;5.80;5.00;;;;;;;15.07;45.60;102131.11;1812085;78;21733;-77
2021/09/30 12:53:58;;;;;;;6.77;5.30;;;;;;;15.16;45.52;102130.13;1775345;78;21728;-76
2021/09/30 12:56:40;;;;;;;5.93;4.87;;;;;;;15.23;45.21;102106.03;1807066;77;21680;-77
2021/09/30 12:59:14;;;;;;;6.30;5.60;;;;;;;15.34;45.30;102122.30;1773371;78;21026;-78
2021/09/30 13:01:43;;;;;;;7.50;5.43;;;;;;;15.18;43.72;102118.59;1816702;77;21524;-77
2021/09/30 13:04:22;;;;;;;6.67;5.27;;;;;;;15.18;43.72;102118.59;1815757;77;21177;-77
2021/09/30 13:07:01;;;;;;;8.03;5.73;;;;;;;15.05;44.47;102118.96;1817173;77;21727;-78
2021/09/30 13:09:35;;;;;;;7.43;5.20;;;;;;;15.16;44.60;102108.06;1822298;77;22033;-76
2021/09/30 13:12:12;;;;;;;8.77;5.83;;;;;;;15.16;44.60;102108.06;1807114;77;20983;-75
2021/09/30 13:14:53;;;;;;;8.10;5.70;;;;;;;15.15;44.08;102106.45;1783607;78;21400;-78
2021/09/30 13:17:25;;;;;;;6.50;5.00;;;;;;;15.12;44.17;102106.95;1784516;79;21750;-82
2021/09/30 13:19:59;;;;;;;7.00;5.20;;;;;;;15.11;44.55;102102.63;1822489;76;21683;-78
2021/09/30 13:22:34;;;;;;;6.53;5.50;;;;;;;15.13;44.90;102100.48;1809602;77;22299;-79
2021/09/30 13:25:05;;;;;;;7.27;5.13;;;;;;;15.19;45.16;102096.80;1813622;77;21726;-78
2021/09/30 13:27:35;;;;;;;8.00;5.77;;;;;;;15.27;44.61;102096.08;1777656;79;21774;-76
2021/09/30 13:30:08;;;;;;;8.50;5.37;;;;;;;15.26;44.68;102089.88;1774140;79;21775;-78
2021/09/30 13:32:34;;;;;;;7.67;5.17;;;;;;;15.22;44.89;102093.61;1786828;78;21695;-78
2021/09/30 13:35:02;;;;;;;7.97;4.70;;;;;;;15.32;44.77;102086.73;1812190;77;21898;-77
2021/09/30 13:37:29;;;;;;;7.07;4.80;;;;;;;15.29;44.63;102085.34;1787663;79;21187;-78
2021/09/30 13:39:59;;;;;;;7.23;4.80;;;;;;;15.29;44.63;102085.34;1758049;79;21224;-78
2021/09/30 13:42:30;;;;;;;6.47;4.90;;;;;;;15.13;44.70;102084.88;1788803;78;22253;-79
2021/09/30 13:44:57;;;;;;;6.70;5.13;;;;;;;15.03;44.81;102076.67;1785380;78;21085;-79
2021/09/30 13:47:28;;;;;;;7.50;5.50;;;;;;;14.97;44.25;102074.44;1775380;80;21705;-80
2021/09/30 13:50:02;;;;;;;6.42;4.70;;;;;;;14.87;44.36;102072.45;1815101;78;23118;-79
2021/09/30 13:52:30;;;;;;;6.13;4.90;;;;;;;14.85;45.11;102064.34;1816118;77;21754;-79
2021/09/30 13:54:56;;;;;;;7.60;5.00;;;;;;;14.85;45.52;102065.16;1815816;77;21745;-78
2021/09/30 13:57:23;;;;;;;5.73;4.53;;;;;;;14.91;45.46;102067.39;1809928;77;21757;-77
2021/09/30 13:59:50;;;;;;;6.50;5.13;;;;;;;14.96;45.03;102068.79;1796007;78;21734;-77
2021/09/30 14:02:17;;;;;;;6.43;4.67;;;;;;;14.94;44.62;102065.55;1809986;77;21725;-81
2021/09/30 14:04:44;;;;;;;7.40;5.33;;;;;;;14.88;44.65;102063.85;1803672;77;21620;-82
2021/09/30 14:07:11;;;;;;;8.27;5.20;;;;;;;14.85;44.78;102062.47;1784318;78;22212;-79
2021/09/30 14:09:38;;;;;;;6.53;4.80;;;;;;;14.82;44.77;102063.50;1789359;78;22390;-81
2021/09/30 14:12:07;;;;;;;6.63;4.60;;;;;;;14.70;44.61;102057.67;1806379;77;21112;-78
2021/09/30 14:14:35;;;;;;;7.17;4.83;;;;;;;14.64;45.12;102056.00;1822486;77;22229;-81
2021/09/30 14:17:03;;;;;;;7.13;5.73;;;;;;;14.69;45.17;102058.75;1776998;79;21731;-80
2021/09/30 14:19:33;;;;;;;6.00;4.63;;;;;;;14.74;44.86;102062.87;1818377;77;21782;-80